Time;durP1;ratioP1;P1;durP2;ratioP2;P2;SDS_P1;SDS_P2;PMS_P1;PMS_P2;Temp;Humidity;BMP_temperature;BMP_pressure;BME280_temperature;BME280_humidity;BME280_pressure;Samples;Min_cycle;Max_cycle;Signal;HPM_P1;HPM_P2
2021/07/27 00:02:06;;;;;;;12.55;11.20;;;;;;;21.06;68.16;100018.31;128632;1094;22365;-74
2021/07/27 00:04:36;;;;;;;12.48;11.18;;;;;;;21.03;68.29;100016.14;128596;1094;22806;-75
2021/07/27 00:07:06;;;;;;;15.43;12.50;;;;;;;20.97;68.32;100015.23;128572;1095;24991;-76
2021/07/27 00:09:35;;;;;;;13.45;12.33;;;;;;;20.90;68.32;100015.41;128567;1095;22347;-76
2021/07/27 00:12:05;;;;;;;13.35;12.15;;;;;;;20.81;68.85;100016.86;128567;1095;22375;-76
2021/07/27 00:14:35;;;;;;;12.95;11.65;;;;;;;20.76;68.93;100021.31;128654;1093;22349;-77
2021/07/27 00:17:05;;;;;;;13.47;12.30;;;;;;;20.67;69.36;100016.36;128652;1095;24492;-76
2021/07/27 00:19:34;;;;;;;13.28;11.68;;;;;;;20.64;69.56;100007.98;128322;1095;22353;-75
2021/07/27 00:22:04;;;;;;;13.25;12.05;;;;;;;20.63;69.85;100004.48;128596;1095;22363;-76
2021/07/27 00:24:34;;;;;;;12.33;11.28;;;;;;;20.65;70.02;99999.67;128634;1095;22357;-76
2021/07/27 00:27:03;;;;;;;32.45;29.43;;;;;;;20.64;69.74;99999.93;128630;1095;22366;-76
2021/07/27 00:29:34;;;;;;;15.45;14.05;;;;;;;20.58;69.75;99998.21;128616;1095;22363;-76
2021/07/27 00:32:04;;;;;;;15.00;13.73;;;;;;;20.54;69.89;100007.80;128595;1094;24569;-76
2021/07/27 00:34:33;;;;;;;15.00;13.65;;;;;;;20.49;70.19;99997.75;128577;1095;22350;-75
2021/07/27 00:37:04;;;;;;;14.45;13.25;;;;;;;20.49;70.12;100003.11;128669;1093;22350;-76
2021/07/27 00:39:33;;;;;;;14.28;12.83;;;;;;;20.48;70.80;100006.86;128592;1094;22423;-75
2021/07/27 00:42:03;;;;;;;15.75;14.35;;;;;;;20.51;71.01;100005.60;128662;1094;22353;-75
2021/07/27 00:44:33;;;;;;;15.33;13.65;;;;;;;20.53;71.30;100007.00;128659;1095;24512;-74
2021/07/27 00:47:03;;;;;;;13.85;12.65;;;;;;;20.57;71.00;100008.14;128609;1094;22346;-74
2021/07/27 00:49:32;;;;;;;14.68;13.28;;;;;;;20.61;71.27;100020.01;128447;1095;25633;-74
2021/07/27 00:52:04;;;;;;;13.63;12.28;;;;;;;20.66;71.14;100028.16;128596;1095;22334;-75
2021/07/27 00:54:35;;;;;;;14.95;13.60;;;;;;;20.71;71.22;100038.16;128630;1093;22362;-75
2021/07/27 00:57:05;;;;;;;15.15;13.80;;;;;;;20.75;70.88;100017.02;128585;1093;22348;-75
2021/07/27 00:59:34;;;;;;;14.23;12.93;;;;;;;20.77;70.90;100023.77;128577;1095;22358;-75
2021/07/27 01:02:04;;;;;;;15.80;14.23;;;;;;;20.80;70.88;100046.64;128581;1094;22359;-74
2021/07/27 01:04:34;;;;;;;17.53;15.40;;;;;;;20.83;70.98;100041.60;128566;1095;22369;-75
2021/07/27 01:07:04;;;;;;;16.15;14.65;;;;;;;20.85;70.60;100030.60;128584;1095;22362;-75
2021/07/27 01:09:33;;;;;;;15.90;14.60;;;;;;;20.84;70.60;100032.48;128605;1095;24489;-76
2021/07/27 01:12:04;;;;;;;17.28;15.78;;;;;;;20.84;70.53;100023.62;128573;1095;22350;-75
2021/07/27 01:14:33;;;;;;;;;;;;;;;20.82;70.64;100023.03;128516;1095;22351;-75
2021/07/27 01:17:03;;;;;;;15.33;13.90;;;;;;;20.80;70.46;100022.48;128625;1095;22331;-76
2021/07/27 01:44:08;;;;;;;;;;;;;;;20.67;71.04;100008.31;128628;1095;22349;-75
2021/07/27 01:46:37;;;;;;;17.43;15.83;;;;;;;20.63;71.10;100001.80;128559;1095;21252;-74
2021/07/27 01:49:07;;;;;;;17.83;16.25;;;;;;;20.65;70.65;100006.91;128570;1095;22366;-75
2021/07/27 01:51:45;;;;;;;19.15;17.30;;;;;;;20.67;71.44;100008.31;128559;1093;22335;-75
2021/07/27 01:54:16;;;;;;;19.75;17.85;;;;;;;20.67;71.05;100012.87;128553;1095;22344;-74
2021/07/27 01:56:47;;;;;;;19.55;17.93;;;;;;;20.67;71.15;100012.87;128362;1095;22348;-74
2021/07/27 01:59:17;;;;;;;18.43;16.93;;;;;;;20.67;71.50;100028.97;128571;1094;22343;-75
2021/07/27 02:01:47;;;;;;;20.40;18.50;;;;;;;20.70;71.75;100046.47;128584;1095;22372;-75
2021/07/27 02:04:17;;;;;;;21.95;20.05;;;;;;;20.72;71.51;100055.08;128758;1093;24314;-76
2021/07/27 02:06:47;;;;;;;20.68;18.88;;;;;;;20.71;71.53;100072.25;128577;1094;22375;-76
2021/07/27 02:09:16;;;;;;;19.50;17.48;;;;;;;20.75;71.86;100086.80;128592;1094;22332;-77
2021/07/27 02:11:48;;;;;;;16.63;15.05;;;;;;;20.76;71.76;100083.05;128525;1093;22378;-76
2021/07/27 02:14:18;;;;;;;17.30;15.85;;;;;;;20.79;71.74;100085.26;128658;1093;22370;-76
2021/07/27 02:16:47;;;;;;;20.33;16.90;;;;;;;20.84;71.80;100104.16;128543;1095;23867;-76
2021/07/27 02:19:17;;;;;;;22.47;19.37;;;;;;;20.84;71.80;100101.47;128613;1094;24171;-77
2021/07/27 02:21:46;;;;;;;22.38;19.10;;;;;;;20.79;72.27;100091.47;128649;1093;24246;-75
2021/07/27 02:24:16;;;;;;;25.55;19.55;;;;;;;20.73;72.39;100087.06;128591;1095;22350;-76
2021/07/27 02:26:45;;;;;;;23.75;19.03;;;;;;;20.65;73.16;100093.61;128598;1095;22372;-75
2021/07/27 02:29:15;;;;;;;16.10;14.50;;;;;;;20.40;73.28;100085.06;128544;1095;22344;-76
2021/07/27 02:31:45;;;;;;;17.58;13.95;;;;;;;20.17;74.13;100070.67;128622;1093;22348;-77
2021/07/27 02:34:14;;;;;;;16.73;14.15;;;;;;;19.97;74.78;100067.58;128596;1095;22355;-77
2021/07/27 02:36:44;;;;;;;15.15;13.65;;;;;;;19.87;75.48;100070.05;128617;1093;22458;-75
2021/07/27 02:39:13;;;;;;;16.28;14.53;;;;;;;19.79;75.84;100070.39;128624;1093;22343;-76
2021/07/27 02:41:43;;;;;;;16.08;14.38;;;;;;;19.74;76.64;100076.47;128586;1095;24226;-74
2021/07/27 02:44:12;;;;;;;17.05;15.25;;;;;;;19.70;76.94;100080.67;128600;1095;22379;-76
2021/07/27 02:46:42;;;;;;;17.63;14.88;;;;;;;19.69;77.44;100092.41;128544;1095;22363;-75
2021/07/27 02:49:12;;;;;;;17.40;15.95;;;;;;;19.66;77.74;100076.80;128602;1095;22369;-75
2021/07/27 02:51:51;;;;;;;18.35;15.83;;;;;;;19.64;78.09;100078.92;128641;1093;22392;-75
2021/07/27 02:54:20;;;;;;;15.28;13.78;;;;;;;19.61;78.45;100071.31;128604;1095;22369;-75
2021/07/27 02:56:50;;;;;;;16.20;14.73;;;;;;;19.51;78.34;100072.70;128602;1095;22368;-75
2021/07/27 02:59:19;;;;;;;17.18;15.60;;;;;;;19.41;78.64;100064.44;128612;1094;22369;-75
2021/07/27 03:01:49;;;;;;;17.18;15.48;;;;;;;19.34;79.07;100057.58;128532;1093;22350;-76
2021/07/27 03:04:19;;;;;;;15.85;14.53;;;;;;;19.29;79.43;100055.58;128586;1095;22388;-75
2021/07/27 03:06:49;;;;;;;17.85;16.15;;;;;;;19.25;79.76;100059.77;128561;1095;22365;-75
2021/07/27 03:09:24;;;;;;;19.35;16.60;;;;;;;19.18;79.76;100069.78;128670;1093;24486;-75
2021/07/27 03:11:54;;;;;;;17.03;15.53;;;;;;;19.08;80.20;100075.70;128625;1095;23014;-76
2021/07/27 03:14:26;;;;;;;16.98;15.18;;;;;;;19.04;80.66;100077.22;128606;1095;22359;-75
2021/07/27 03:16:56;;;;;;;16.08;14.53;;;;;;;19.05;80.78;100081.52;128577;1093;23123;-76
2021/07/27 03:19:26;;;;;;;17.40;15.70;;;;;;;19.04;80.93;100087.92;128676;1095;22344;-74
2021/07/27 03:21:56;;;;;;;16.23;14.48;;;;;;;19.04;80.85;100083.38;128593;1095;22343;-74
2021/07/27 03:24:25;;;;;;;17.03;15.55;;;;;;;19.09;81.33;100090.71;128591;1095;24183;-75
2021/07/27 03:26:55;;;;;;;16.75;14.85;;;;;;;19.13;81.25;100093.77;128535;1095;22370;-75
2021/07/27 03:29:24;;;;;;;16.60;15.00;;;;;;;19.16;81.48;100098.64;128621;1093;23056;-75
2021/07/27 03:31:54;;;;;;;17.85;15.95;;;;;;;19.21;81.63;100101.45;128601;1095;22359;-75
2021/07/27 03:34:24;;;;;;;19.40;17.63;;;;;;;19.23;81.54;100102.05;128624;1092;24969;-75
2021/07/27 03:36:54;;;;;;;17.70;14.70;;;;;;;19.25;81.31;100116.82;128643;1095;22362;-76
2021/07/27 03:39:23;;;;;;;17.35;15.35;;;;;;;19.22;81.42;100109.25;128587;1095;22339;-75
2021/07/27 03:41:53;;;;;;;17.48;15.83;;;;;;;19.26;81.76;100106.95;128578;1095;24976;-76
2021/07/27 03:44:22;;;;;;;18.13;16.33;;;;;;;19.27;81.81;100098.67;128640;1095;23129;-75
2021/07/27 03:46:53;;;;;;;19.10;17.15;;;;;;;19.31;82.17;100109.73;128580;1095;22336;-74
2021/07/27 03:49:23;;;;;;;18.38;16.73;;;;;;;19.34;82.10;100111.14;128667;1095;23132;-76
2021/07/27 03:51:53;;;;;;;20.28;18.28;;;;;;;19.38;82.49;100109.63;128590;1095;22671;-75
2021/07/27 03:54:23;;;;;;;22.78;18.55;;;;;;;19.40;82.23;100113.72;128620;1095;22347;-75
2021/07/27 03:56:52;;;;;;;20.33;18.55;;;;;;;19.42;82.18;100111.60;128554;1094;22379;-75
2021/07/27 03:59:22;;;;;;;21.50;19.15;;;;;;;19.45;82.66;100113.81;128611;1093;22345;-75
2021/07/27 04:01:52;;;;;;;21.20;19.20;;;;;;;19.48;82.23;100104.51;128584;1093;22365;-76
2021/07/27 04:04:21;;;;;;;22.30;18.88;;;;;;;19.52;82.33;100119.88;128597;1093;22351;-77
2021/07/27 04:06:51;;;;;;;20.80;18.98;;;;;;;19.54;82.33;100108.95;128581;1095;22347;-75
2021/07/27 04:09:21;;;;;;;20.83;19.03;;;;;;;19.53;82.11;100118.04;128654;1092;22359;-75
2021/07/27 04:11:50;;;;;;;21.10;19.10;;;;;;;19.48;82.18;100117.91;128543;1095;22346;-75
2021/07/27 04:14:20;;;;;;;22.38;20.45;;;;;;;19.43;81.92;100123.97;128582;1095;22799;-76
2021/07/27 04:16:50;;;;;;;21.38;19.28;;;;;;;19.43;82.08;100123.16;128571;1095;22365;-76
2021/07/27 04:19:20;;;;;;;22.95;20.75;;;;;;;19.45;82.39;100119.17;128556;1095;24288;-76
2021/07/27 04:21:50;;;;;;;20.13;18.20;;;;;;;19.50;82.76;100116.63;128755;1094;24227;-76
2021/07/27 04:24:19;;;;;;;24.83;20.18;;;;;;;19.54;82.65;100114.30;128663;1093;24017;-76
2021/07/27 04:26:49;;;;;;;21.08;19.28;;;;;;;19.58;82.68;100128.05;128586;1095;22339;-76
2021/07/27 04:29:19;;;;;;;23.95;21.58;;;;;;;19.61;82.50;100127.59;128564;1095;22353;-76
2021/07/27 04:31:50;;;;;;;23.10;20.90;;;;;;;19.66;83.00;100141.12;128596;1095;24855;-76
2021/07/27 04:34:20;;;;;;;22.35;20.25;;;;;;;19.69;82.75;100141.50;128580;1095;22375;-76
2021/07/27 04:36:52;;;;;;;22.00;20.10;;;;;;;19.74;83.17;100140.78;128588;1095;22347;-76
2021/07/27 04:39:22;;;;;;;21.15;18.98;;;;;;;19.76;82.98;100138.70;128568;1095;22351;-75
2021/07/27 04:41:51;;;;;;;19.55;17.78;;;;;;;19.80;82.80;100142.54;128568;1095;22350;-75
2021/07/27 04:44:21;;;;;;;19.23;17.43;;;;;;;19.85;82.66;100145.31;128631;1095;22343;-75
2021/07/27 04:46:51;;;;;;;20.38;18.58;;;;;;;19.93;83.15;100149.53;128584;1095;24519;-76
2021/07/27 04:49:20;;;;;;;21.70;19.60;;;;;;;20.00;83.15;100157.45;128591;1094;24485;-76
2021/07/27 04:51:50;;;;;;;21.25;19.23;;;;;;;20.11;83.28;100153.94;128629;1095;22351;-76
2021/07/27 04:54:27;;;;;;;20.75;18.65;;;;;;;20.23;83.38;100157.42;128652;1095;22332;-76
2021/07/27 04:57:01;;;;;;;22.28;20.23;;;;;;;20.35;83.54;100149.34;128636;1095;22346;-76
2021/07/27 04:59:32;;;;;;;22.83;20.40;;;;;;;20.44;83.04;100145.23;128189;1098;22374;-76
2021/07/27 05:02:01;;;;;;;21.25;18.95;;;;;;;20.52;83.10;100149.44;128287;1098;24189;-74
2021/07/27 05:04:36;;;;;;;21.68;18.30;;;;;;;20.65;83.03;100143.80;128199;1098;22837;-74
2021/07/27 05:07:06;;;;;;;23.53;18.88;;;;;;;20.79;82.63;100137.11;128198;1096;22366;-75
2021/07/27 05:09:35;;;;;;;24.20;21.65;;;;;;;20.99;82.77;100138.50;128215;1098;25017;-74
2021/07/27 05:12:06;;;;;;;18.13;16.63;;;;;;;21.15;82.69;100133.16;128201;1096;22357;-75
2021/07/27 05:14:36;;;;;;;18.75;17.15;;;;;;;21.32;82.01;100127.80;128154;1098;22378;-74
2021/07/27 05:17:10;;;;;;;18.00;16.40;;;;;;;21.52;81.82;100138.08;128186;1095;25014;-74
2021/07/27 05:19:54;;;;;;;18.93;16.35;;;;;;;21.66;81.17;100143.13;128242;1094;24492;-73
2021/07/27 05:22:24;;;;;;;16.55;14.93;;;;;;;21.75;80.37;100141.66;128328;1095;22343;-74
2021/07/27 05:24:54;;;;;;;17.03;15.43;;;;;;;21.81;79.78;100146.86;128608;1094;22372;-73
2021/07/27 05:27:26;;;;;;;18.20;16.63;;;;;;;21.87;79.29;100150.45;128565;1095;22374;-74
2021/07/27 05:29:56;;;;;;;16.98;15.48;;;;;;;21.92;78.99;100157.77;128442;1094;24237;-74
2021/07/27 05:32:26;;;;;;;16.78;15.20;;;;;;;21.97;78.57;100163.23;128578;1094;22363;-75
2021/07/27 05:34:56;;;;;;;16.93;15.20;;;;;;;21.99;78.25;100166.47;128538;1093;22343;-75
2021/07/27 05:37:25;;;;;;;17.30;15.13;;;;;;;22.01;77.92;100156.28;128627;1095;24989;-74
2021/07/27 05:39:56;;;;;;;18.43;14.85;;;;;;;22.05;78.09;100162.79;128579;1094;22358;-75
2021/07/27 05:42:26;;;;;;;16.98;14.00;;;;;;;22.11;78.07;100166.38;128584;1095;22347;-75
2021/07/27 05:44:55;;;;;;;16.55;14.40;;;;;;;22.19;77.88;100161.42;128519;1095;22359;-75
2021/07/27 05:47:25;;;;;;;14.75;13.35;;;;;;;22.38;78.35;100169.98;128610;1095;22372;-74
2021/07/27 05:49:55;;;;;;;21.05;14.93;;;;;;;22.65;78.16;100175.42;128588;1094;23113;-75
2021/07/27 05:52:25;;;;;;;16.03;14.43;;;;;;;22.96;77.17;100176.62;128607;1095;22366;-78
2021/07/27 05:54:55;;;;;;;14.65;13.28;;;;;;;23.22;76.43;100182.23;128158;1095;22421;-74
2021/07/27 05:57:24;;;;;;;16.85;14.75;;;;;;;23.57;76.17;100183.63;128130;1095;24650;-73
2021/07/27 05:59:55;;;;;;;17.80;14.83;;;;;;;23.86;75.12;100193.05;128147;1095;22364;-74
2021/07/27 06:02:25;;;;;;;14.20;12.18;;;;;;;24.17;73.67;100185.94;128127;1095;25423;-73
2021/07/27 06:04:54;;;;;;;17.25;12.08;;;;;;;24.53;72.80;100191.55;128205;1095;22368;-73
2021/07/27 06:07:24;;;;;;;14.73;10.77;;;;;;;24.79;71.27;100184.34;128179;1095;22366;-74
2021/07/27 06:09:54;;;;;;;13.63;10.17;;;;;;;25.08;69.95;100198.17;128211;1095;22367;-73
2021/07/27 06:12:24;;;;;;;12.68;10.55;;;;;;;25.41;69.25;100187.97;128181;1095;22819;-74
2021/07/27 06:14:53;;;;;;;17.23;11.50;;;;;;;25.76;68.10;100197.17;128550;1095;22344;-74
2021/07/27 06:17:23;;;;;;;11.98;8.23;;;;;;;25.96;66.17;100197.17;128531;1095;22338;-74
2021/07/27 06:19:53;;;;;;;13.07;8.90;;;;;;;26.22;65.97;100203.30;128599;1093;22385;-74
2021/07/27 06:22:23;;;;;;;9.83;7.20;;;;;;;26.45;64.53;100198.36;128627;1093;22375;-74
2021/07/27 06:24:54;;;;;;;10.15;7.35;;;;;;;26.49;63.02;100204.88;128557;1093;22343;-74
2021/07/27 06:27:24;;;;;;;14.43;7.55;;;;;;;26.44;62.98;100205.69;128614;1095;22520;-74
2021/07/27 06:29:55;;;;;;;7.83;6.78;;;;;;;26.55;62.96;100198.35;128450;1095;22343;-74
2021/07/27 06:32:24;;;;;;;7.20;6.25;;;;;;;26.67;62.42;100206.17;128586;1093;22363;-75
2021/07/27 06:34:54;;;;;;;11.93;8.08;;;;;;;26.91;62.31;100207.12;128650;1093;24224;-74
2021/07/27 06:37:24;;;;;;;10.38;7.68;;;;;;;27.25;61.32;100213.72;128642;1093;22806;-74
2021/07/27 06:39:54;;;;;;;9.40;7.27;;;;;;;27.55;60.24;100209.95;128556;1094;22368;-74
2021/07/27 06:42:23;;;;;;;10.53;7.48;;;;;;;27.78;59.15;100209.24;128563;1095;24518;-74
2021/07/27 06:44:53;;;;;;;7.48;6.68;;;;;;;27.98;57.83;100205.52;128579;1095;22337;-75
2021/07/27 06:47:23;;;;;;;8.85;6.45;;;;;;;28.11;57.62;100207.55;128631;1095;25043;-75
2021/07/27 06:49:53;;;;;;;8.33;7.47;;;;;;;28.38;57.11;100206.97;128589;1093;22414;-79
2021/07/27 06:52:23;;;;;;;8.43;6.73;;;;;;;28.52;56.61;100196.23;128564;1094;22345;-74
2021/07/27 06:54:53;;;;;;;7.80;6.88;;;;;;;28.75;55.79;100205.45;128521;1095;22465;-75
2021/07/27 06:57:22;;;;;;;7.68;6.95;;;;;;;28.97;55.22;100198.64;128591;1093;22375;-75
2021/07/27 06:59:53;;;;;;;10.33;7.45;;;;;;;29.01;54.44;100205.14;128591;1093;22380;-74
2021/07/27 07:02:24;;;;;;;15.23;7.93;;;;;;;29.15;54.53;100211.45;128321;1095;24221;-75
2021/07/27 07:04:53;;;;;;;8.85;6.55;;;;;;;29.24;53.03;100206.16;128598;1094;22372;-74
2021/07/27 07:07:24;;;;;;;9.23;6.83;;;;;;;29.42;52.53;100210.75;128242;1095;22349;-74
2021/07/27 07:09:54;;;;;;;8.05;6.40;;;;;;;29.54;51.86;100213.02;128525;1095;22366;-74
2021/07/27 07:12:26;;;;;;;10.03;6.40;;;;;;;29.71;50.73;100213.30;128538;1095;22345;-74
2021/07/27 07:14:56;;;;;;;8.00;6.33;;;;;;;29.85;50.37;100204.34;128553;1095;22474;-75
2021/07/27 07:17:26;;;;;;;7.38;6.65;;;;;;;29.97;49.73;100210.13;128589;1095;23127;-73
2021/07/27 07:19:56;;;;;;;;;;;;;;;29.98;48.41;100215.26;128303;1095;22350;-75
2021/07/27 07:22:26;;;;;;;6.35;5.85;;;;;;;30.04;49.21;100209.73;128644;1093;21296;-75
2021/07/27 07:24:56;;;;;;;9.28;6.55;;;;;;;30.16;48.09;100210.05;128570;1095;22239;-75
2021/07/27 07:27:26;;;;;;;7.00;5.98;;;;;;;30.04;47.57;100204.28;128559;1095;24560;-74
2021/07/27 07:29:57;;;;;;;9.60;6.20;;;;;;;29.86;47.43;100200.54;128618;1093;22341;-74
2021/07/27 07:32:27;;;;;;;8.55;6.73;;;;;;;29.80;47.58;100207.98;128582;1095;23093;-74
2021/07/27 07:34:57;;;;;;;6.70;6.10;;;;;;;29.93;47.95;100207.20;128378;1095;25058;-75
2021/07/27 07:37:26;;;;;;;7.95;6.13;;;;;;;30.16;47.27;100210.85;128575;1095;22353;-75
2021/07/27 07:39:57;;;;;;;6.53;5.43;;;;;;;30.41;46.77;100211.48;128565;1095;25021;-75
2021/07/27 07:42:26;;;;;;;8.00;5.83;;;;;;;30.64;45.55;100204.19;128581;1094;22359;-75
2021/07/27 07:44:56;;;;;;;;;;;;;;;30.84;45.20;100208.42;128542;1095;22343;-75
2021/07/27 07:47:25;;;;;;;5.93;4.85;;;;;;;30.80;44.02;100201.98;128581;1093;22371;-75
2021/07/27 07:49:58;;;;;;;6.20;5.23;;;;;;;30.92;43.87;100197.61;128511;1095;22349;-75
2021/07/27 07:52:27;;;;;;;8.33;5.45;;;;;;;31.05;43.78;100198.66;128630;1095;22351;-75
2021/07/27 07:54:58;;;;;;;6.63;5.00;;;;;;;31.26;43.16;100204.45;128618;1093;22372;-74
2021/07/27 07:57:27;;;;;;;7.35;5.43;;;;;;;31.54;43.03;100199.69;128580;1095;22364;-75
2021/07/27 08:00:00;;;;;;;5.78;5.10;;;;;;;31.79;42.10;100208.33;128290;1095;22379;-75
2021/07/27 08:02:40;;;;;;;6.08;5.05;;;;;;;31.87;41.38;100202.95;128646;1095;22347;-76
2021/07/27 08:05:10;;;;;;;6.30;5.65;;;;;;;31.93;40.71;100202.84;128557;1095;22347;-76
2021/07/27 08:07:40;;;;;;;9.00;5.65;;;;;;;32.05;41.20;100203.83;128585;1094;24502;-76
2021/07/27 08:10:11;;;;;;;5.80;5.20;;;;;;;32.21;41.19;100200.69;128570;1094;22378;-75
2021/07/27 08:12:42;;;;;;;7.60;4.33;;;;;;;32.42;39.62;100203.63;128542;1095;24512;-75
2021/07/27 08:15:16;;;;;;;5.03;4.45;;;;;;;32.45;39.08;100205.77;128606;1095;22344;-75
2021/07/27 08:17:46;;;;;;;7.53;4.55;;;;;;;32.47;38.98;100198.06;128525;1095;22352;-75
2021/07/27 08:20:15;;;;;;;;;;;;;;;32.64;38.88;100195.35;128586;1095;22351;-74
2021/07/27 08:22:45;;;;;;;6.58;4.20;;;;;;;32.90;38.06;100194.59;128661;1095;22365;-76
2021/07/27 08:25:15;;;;;;;7.47;4.27;;;;;;;33.10;38.39;100193.97;128628;1095;24491;-74
2021/07/27 08:27:46;;;;;;;4.75;3.63;;;;;;;33.26;37.41;100199.77;128649;1093;22379;-74
2021/07/27 08:30:17;;;;;;;4.28;3.80;;;;;;;33.41;36.74;100196.50;128587;1095;22336;-74
2021/07/27 08:32:52;;;;;;;3.20;2.90;;;;;;;33.44;36.02;100195.05;128694;1095;24227;-74
2021/07/27 08:35:23;;;;;;;4.60;4.05;;;;;;;33.30;35.35;100191.70;128643;1095;22348;-74
2021/07/27 08:37:53;;;;;;;3.75;3.43;;;;;;;33.09;35.44;100188.80;128586;1094;22365;-75
2021/07/27 08:40:23;;;;;;;4.20;3.80;;;;;;;33.01;35.13;100190.42;128596;1095;22338;-75
2021/07/27 08:42:52;;;;;;;4.40;4.00;;;;;;;33.03;35.99;100199.13;128702;1095;22336;-76
2021/07/27 08:45:22;;;;;;;7.17;3.97;;;;;;;33.26;35.51;100192.34;128576;1095;22372;-75
2021/07/27 08:47:52;;;;;;;6.35;3.43;;;;;;;33.40;35.18;100196.84;128537;1093;22408;-75
2021/07/27 08:50:21;;;;;;;6.88;3.58;;;;;;;33.36;34.80;100195.89;128617;1095;24998;-74
2021/07/27 08:52:51;;;;;;;5.53;3.30;;;;;;;33.37;35.05;100200.22;128583;1095;22350;-75
2021/07/27 08:55:21;;;;;;;3.50;3.20;;;;;;;33.54;34.59;100193.94;128626;1093;25053;-74
2021/07/27 08:57:58;;;;;;;;;;;;;;;33.73;34.26;100195.18;128592;1095;22369;-74
2021/07/27 09:00:30;;;;;;;5.35;3.30;;;;;;;33.64;34.00;100199.87;128672;1093;22352;-76
2021/07/27 09:03:16;;;;;;;4.20;3.28;;;;;;;33.49;34.19;100192.98;128564;1095;22376;-75
2021/07/27 09:05:47;;;;;;;6.25;3.68;;;;;;;33.36;34.14;100196.69;128517;1095;22359;-75
2021/07/27 09:08:17;;;;;;;4.28;3.45;;;;;;;33.18;33.87;100204.09;128484;1095;22367;-75
2021/07/27 09:10:51;;;;;;;5.25;3.70;;;;;;;32.98;34.18;100193.80;128567;1095;22366;-75
2021/07/27 09:13:21;;;;;;;4.65;3.70;;;;;;;32.65;35.08;100199.69;128208;1098;22832;-75
2021/07/27 09:15:57;;;;;;;5.77;3.80;;;;;;;32.77;35.43;100199.88;128162;1098;24511;-75
2021/07/27 09:18:30;;;;;;;3.45;3.13;;;;;;;32.71;34.78;100194.88;128165;1098;23326;-75
2021/07/27 09:21:02;;;;;;;5.63;3.15;;;;;;;32.60;35.27;100188.13;128168;1098;24502;-74
2021/07/27 09:23:33;;;;;;;6.05;5.55;;;;;;;32.60;34.85;100190.85;128230;1097;22444;-75
2021/07/27 09:26:10;;;;;;;3.48;3.18;;;;;;;32.55;35.52;100192.59;128187;1096;22794;-75
2021/07/27 09:28:39;;;;;;;5.43;4.28;;;;;;;32.61;35.59;100192.45;128180;1098;24511;-75
2021/07/27 09:31:09;;;;;;;4.80;3.90;;;;;;;32.34;35.21;100195.09;128272;1095;22369;-74
2021/07/27 09:33:38;;;;;;;;;;;;;;;32.03;35.56;100194.36;128424;1095;22116;-74
2021/07/27 09:36:09;;;;;;;4.55;3.45;;;;;;;31.89;35.88;100189.00;128607;1095;22353;-75
2021/07/27 09:38:39;;;;;;;5.40;3.93;;;;;;;31.98;35.75;100197.22;128428;1095;23302;-75
2021/07/27 09:41:09;;;;;;;6.73;4.13;;;;;;;32.01;35.71;100193.86;128075;1098;22367;-75
2021/07/27 09:43:47;;;;;;;7.28;3.83;;;;;;;32.09;36.39;100191.17;128177;1097;22370;-75
2021/07/27 09:46:17;;;;;;;8.05;4.48;;;;;;;32.17;36.03;100194.25;128204;1098;24605;-75
2021/07/27 09:48:49;;;;;;;8.05;3.80;;;;;;;32.29;35.81;100191.69;128186;1095;22395;-76
2021/07/27 09:51:19;;;;;;;4.48;3.70;;;;;;;32.24;35.41;100197.32;128164;1096;22359;-75
2021/07/27 09:53:49;;;;;;;5.40;3.73;;;;;;;32.18;35.39;100196.65;128281;1098;22366;-75
2021/07/27 09:56:19;;;;;;;6.05;3.50;;;;;;;32.17;35.17;100202.45;128227;1098;22360;-76
2021/07/27 09:58:48;;;;;;;5.35;3.48;;;;;;;32.16;35.19;100204.38;128262;1095;22388;-75
2021/07/27 10:01:21;;;;;;;5.55;3.85;;;;;;;32.08;35.43;100199.66;128526;1093;22498;-74
2021/07/27 10:03:57;;;;;;;4.50;3.83;;;;;;;32.16;35.56;100206.28;128646;1095;22452;-74
2021/07/27 10:06:31;;;;;;;5.25;3.83;;;;;;;32.51;35.45;100196.30;128508;1095;22353;-75
2021/07/27 10:09:02;;;;;;;6.33;3.98;;;;;;;32.75;35.39;100199.38;128570;1095;24157;-75
2021/07/27 10:11:41;;;;;;;4.70;3.50;;;;;;;32.89;34.53;100204.73;128596;1095;22385;-75
2021/07/27 10:14:16;;;;;;;5.65;4.38;;;;;;;33.12;34.57;100196.37;128649;1093;24285;-75
2021/07/27 10:16:48;;;;;;;4.50;4.07;;;;;;;33.02;33.68;100202.97;128632;1094;22367;-75
2021/07/27 10:19:24;;;;;;;5.50;3.55;;;;;;;33.04;34.20;100201.52;128639;1094;22359;-75
2021/07/27 10:22:06;;;;;;;4.10;3.70;;;;;;;33.07;33.44;100202.02;128553;1094;24256;-75
2021/07/27 10:24:45;;;;;;;4.03;3.63;;;;;;;32.79;33.77;100203.11;128256;1095;22430;-75
2021/07/27 10:27:24;;;;;;;6.23;3.45;;;;;;;32.75;34.21;100195.84;128666;1095;22449;-75
2021/07/27 10:30:10;;;;;;;5.75;4.13;;;;;;;32.75;34.39;100204.05;128656;1095;22353;-75
2021/07/27 10:32:52;;;;;;;4.78;3.33;;;;;;;32.79;34.32;100211.31;128441;1095;22812;-74
2021/07/27 10:35:34;;;;;;;5.18;4.00;;;;;;;32.79;34.33;100205.84;128344;1095;24505;-75
2021/07/27 10:38:11;;;;;;;4.50;4.10;;;;;;;32.78;33.98;100203.41;128568;1095;24499;-74
2021/07/27 10:40:42;;;;;;;4.93;3.95;;;;;;;32.61;34.49;100209.66;128287;1094;22371;-75
2021/07/27 10:43:26;;;;;;;5.28;4.78;;;;;;;32.43;35.13;100205.30;128595;1095;24501;-75
2021/07/27 10:46:00;;;;;;;5.75;3.83;;;;;;;32.11;35.60;100191.64;128549;1095;22353;-76
2021/07/27 10:48:42;;;;;;;6.98;3.25;;;;;;;32.00;35.68;100200.45;128230;1095;22398;-74
2021/07/27 10:51:12;;;;;;;3.70;3.35;;;;;;;31.92;35.78;100199.27;128308;1095;22354;-75
2021/07/27 10:53:51;;;;;;;5.30;4.33;;;;;;;31.84;35.80;100202.75;128563;1095;24501;-75
2021/07/27 10:56:31;;;;;;;5.95;3.00;;;;;;;31.63;35.88;100202.48;128307;1095;22372;-74
2021/07/27 10:59:02;;;;;;;3.55;3.25;;;;;;;31.53;35.54;100195.36;128536;1095;22353;-75
2021/07/27 11:01:32;;;;;;;6.50;4.25;;;;;;;31.48;36.17;100191.94;128566;1095;22369;-76
2021/07/27 11:04:11;;;;;;;;;;;;;;;31.40;35.64;100188.05;128582;1095;22365;-77
2021/07/27 11:06:41;;;;;;;4.30;3.30;;;;;;;31.19;36.13;100190.44;128175;1098;23284;-76
2021/07/27 11:09:13;;;;;;;4.47;3.70;;;;;;;30.97;36.33;100193.14;128181;1098;24256;-75
2021/07/27 11:11:49;;;;;;;3.77;3.27;;;;;;;30.77;36.69;100183.50;128147;1098;22659;-75
2021/07/27 11:14:23;;;;;;;4.83;3.58;;;;;;;30.58;36.67;100181.67;128251;1098;22367;-74
2021/07/27 11:16:53;;;;;;;4.35;3.28;;;;;;;30.62;36.86;100188.16;128224;1097;22359;-75
2021/07/27 11:19:29;;;;;;;7.63;3.90;;;;;;;30.59;37.04;100180.59;128152;1098;24253;-75
2021/07/27 11:21:59;;;;;;;3.65;3.35;;;;;;;30.48;37.34;100179.97;128211;1096;22427;-75
2021/07/27 11:24:29;;;;;;;6.18;3.45;;;;;;;30.42;37.09;100185.83;128263;1095;22359;-74
2021/07/27 11:26:59;;;;;;;3.65;3.10;;;;;;;30.26;36.91;100179.91;128537;1095;22356;-75
2021/07/27 11:29:30;;;;;;;3.73;3.03;;;;;;;30.11;37.70;100178.25;128555;1095;24492;-75
2021/07/27 11:31:59;;;;;;;5.40;4.00;;;;;;;30.08;37.60;100176.13;128282;1095;22361;-75
2021/07/27 11:34:31;;;;;;;5.68;3.88;;;;;;;30.03;37.49;100169.99;128544;1095;23118;-75
2021/07/27 11:37:01;;;;;;;6.58;4.43;;;;;;;29.99;37.49;100176.04;128311;1095;22645;-75
2021/07/27 11:39:40;;;;;;;3.80;3.33;;;;;;;29.89;38.43;100167.23;128570;1095;22356;-76
2021/07/27 11:42:10;;;;;;;5.25;3.40;;;;;;;29.94;38.96;100176.13;128565;1095;22397;-75
2021/07/27 11:44:49;;;;;;;4.03;3.63;;;;;;;29.99;38.78;100170.59;128542;1095;22353;-75
2021/07/27 11:47:18;;;;;;;5.00;3.73;;;;;;;30.01;38.87;100165.63;128292;1095;22353;-74
2021/07/27 11:49:58;;;;;;;7.08;3.65;;;;;;;30.00;38.66;100164.03;128613;1095;22348;-75
2021/07/27 11:52:27;;;;;;;7.45;3.83;;;;;;;30.03;38.66;100164.55;128586;1093;22351;-74
2021/07/27 11:55:05;;;;;;;3.88;3.58;;;;;;;30.09;37.81;100163.31;128558;1095;22417;-74